UAL1887 KSFO-PHOG
Flight info
| Callsign | UAL1887 |
|---|---|
| Flight time | N/A |
| Altitude | 36000 |
| Route | GNNRR3 BEBOP R464 BILLO/N0448F380 R464 BITTA LNDHY1 |
| Aircraft | B38M/M-SDE1FGHILORVWXY/HB1 |
Departure
| Time | N/A |
|---|---|
| Airport | San Francisco International Airport (KSFO) |
Arrival
| Time | 2026-04-22 00:50 |
|---|---|
| Airport | Kahului International Airport (PHOG) |
| Time | Latitude | Longitude | Altitude | Speed | Heading |
|---|---|---|---|---|---|
| 2026-04-21 23:51 | 26.78250 | -149.91983 | 35652 ft | 433 kts | 249° |
| 2026-04-21 23:52 | 26.75113 | -149.97929 | 35705 ft | 447 kts | 246° |
| 2026-04-21 23:52 | 26.73491 | -150.00907 | 35984 ft | 447 kts | 246° |
| 2026-04-21 23:52 | 26.71878 | -150.03850 | 36096 ft | 450 kts | 246° |
| 2026-04-21 23:53 | 26.66691 | -150.13330 | 36089 ft | 462 kts | 246° |
| 2026-04-21 23:53 | 26.59909 | -150.25610 | 36088 ft | 463 kts | 245° |
| 2026-04-21 23:54 | 26.50228 | -150.43066 | 36077 ft | 462 kts | 246° |
| 2026-04-21 23:54 | 26.42749 | -150.55488 | 36061 ft | 461 kts | 248° |
| 2026-04-21 23:55 | 26.39603 | -150.61629 | 36069 ft | 465 kts | 240° |
| 2026-04-21 23:55 | 26.36056 | -150.67645 | 36051 ft | 463 kts | 245° |
| 2026-04-21 23:56 | 26.30136 | -150.78279 | 36064 ft | 463 kts | 245° |
| 2026-04-21 23:56 | 26.26694 | -150.84394 | 36282 ft | 468 kts | 245° |
| 2026-04-21 23:56 | 26.23238 | -150.90589 | 36634 ft | 472 kts | 244° |
| 2026-04-21 23:56 | 26.19216 | -150.97786 | 37161 ft | 471 kts | 245° |
| 2026-04-21 23:57 | 26.15565 | -151.04323 | 37632 ft | 470 kts | 245° |
| 2026-04-21 23:57 | 26.11781 | -151.11065 | 37876 ft | 466 kts | 245° |
| 2026-04-21 23:57 | 26.08317 | -151.17200 | 37977 ft | 467 kts | 245° |
| 2026-04-21 23:58 | 26.01422 | -151.29508 | 38052 ft | 467 kts | 245° |
| 2026-04-21 23:58 | 25.94542 | -151.41688 | 38061 ft | 466 kts | 244° |
| 2026-04-21 23:59 | 25.87091 | -151.54855 | 38072 ft | 467 kts | 245° |
| 2026-04-21 23:59 | 25.80163 | -151.67077 | 38076 ft | 467 kts | 245° |
| 2026-04-22 00:00 | 25.17864 | -152.75464 | 38061 ft | 466 kts | 244° |
| 2026-04-22 00:01 | 25.10860 | -152.87535 | 38064 ft | 464 kts | 244° |
| 2026-04-22 00:01 | 25.03879 | -152.99530 | 38070 ft | 464 kts | 244° |
| 2026-04-22 00:02 | 24.96887 | -153.11487 | 38071 ft | 464 kts | 243° |
| 2026-04-22 00:02 | 24.89917 | -153.23321 | 38054 ft | 461 kts | 243° |
| 2026-04-22 00:03 | 24.82909 | -153.35238 | 38060 ft | 465 kts | 243° |
| 2026-04-22 00:03 | 24.75870 | -153.47210 | 38062 ft | 463 kts | 243° |
| 2026-04-22 00:04 | 24.68834 | -153.59081 | 38046 ft | 462 kts | 243° |
| 2026-04-22 00:04 | 24.63026 | -153.68921 | 38057 ft | 463 kts | 243° |
| 2026-04-22 00:05 | 24.59497 | -153.74856 | 38042 ft | 463 kts | 243° |
| 2026-04-22 00:05 | 24.55986 | -153.80767 | 38059 ft | 461 kts | 243° |
| 2026-04-22 00:06 | 24.52500 | -153.86630 | 38062 ft | 460 kts | 242° |
| 2026-04-22 00:06 | 24.48985 | -153.92534 | 38058 ft | 460 kts | 242° |
| 2026-04-22 00:07 | 24.45497 | -153.98386 | 38053 ft | 461 kts | 242° |
| 2026-04-22 00:07 | 24.41971 | -154.04296 | 38062 ft | 462 kts | 242° |
| 2026-04-22 00:08 | 24.38454 | -154.10183 | 38055 ft | 460 kts | 242° |
| 2026-04-22 00:08 | 24.34943 | -154.16053 | 38058 ft | 459 kts | 242° |
| 2026-04-22 00:09 | 24.31450 | -154.21885 | 38058 ft | 459 kts | 242° |
| 2026-04-22 00:09 | 24.27887 | -154.27711 | 38055 ft | 460 kts | 241° |
| 2026-04-22 00:10 | 24.24318 | -154.33485 | 38045 ft | 460 kts | 241° |
| 2026-04-22 00:10 | 24.20717 | -154.39308 | 38053 ft | 460 kts | 241° |
| 2026-04-22 00:11 | 24.17123 | -154.45113 | 38054 ft | 459 kts | 241° |
| 2026-04-22 00:11 | 24.13533 | -154.50905 | 38059 ft | 459 kts | 241° |
| 2026-04-22 00:12 | 24.09953 | -154.56675 | 38058 ft | 459 kts | 241° |
| 2026-04-22 00:12 | 24.06356 | -154.62465 | 38056 ft | 459 kts | 241° |
| 2026-04-22 00:13 | 24.02760 | -154.68248 | 38045 ft | 459 kts | 241° |
| 2026-04-22 00:13 | 23.99175 | -154.74005 | 38052 ft | 459 kts | 241° |
| 2026-04-22 00:14 | 23.95563 | -154.79799 | 38056 ft | 461 kts | 241° |
| 2026-04-22 00:14 | 23.91949 | -154.85589 | 38054 ft | 461 kts | 241° |
| 2026-04-22 00:15 | 23.88327 | -154.91385 | 38051 ft | 461 kts | 241° |
| 2026-04-22 00:15 | 23.84725 | -154.97143 | 38053 ft | 461 kts | 241° |
| 2026-04-22 00:16 | 23.81105 | -155.02923 | 38045 ft | 459 kts | 240° |
| 2026-04-22 00:16 | 23.77511 | -155.08656 | 38050 ft | 460 kts | 240° |
| 2026-04-22 00:17 | 23.73878 | -155.14443 | 38047 ft | 460 kts | 240° |
| 2026-04-22 00:17 | 23.70261 | -155.20199 | 38051 ft | 460 kts | 240° |
| 2026-04-22 00:18 | 23.66634 | -155.25964 | 38051 ft | 460 kts | 240° |
| 2026-04-22 00:18 | 23.63028 | -155.31687 | 38048 ft | 460 kts | 240° |
| 2026-04-22 00:19 | 23.59410 | -155.37426 | 38041 ft | 458 kts | 240° |
| 2026-04-22 00:19 | 23.55793 | -155.43155 | 38041 ft | 459 kts | 239° |
| 2026-04-22 00:19 | 23.53721 | -155.45780 | 38021 ft | 466 kts | 226° |
| 2026-04-22 00:20 | 23.51040 | -155.47823 | 38058 ft | 475 kts | 210° |
| 2026-04-22 00:20 | 23.47914 | -155.49114 | 38053 ft | 483 kts | 199° |
| 2026-04-22 00:20 | 23.44671 | -155.50085 | 38053 ft | 485 kts | 199° |
| 2026-04-22 00:21 | 23.38138 | -155.51977 | 38056 ft | 485 kts | 198° |
| 2026-04-22 00:21 | 23.31626 | -155.53801 | 38051 ft | 485 kts | 198° |
| 2026-04-22 00:22 | 23.22364 | -155.56390 | 38048 ft | 485 kts | 198° |
| 2026-04-22 00:22 | 23.15837 | -155.58201 | 38043 ft | 485 kts | 198° |
| 2026-04-22 00:23 | 23.09277 | -155.60026 | 38043 ft | 485 kts | 198° |
| 2026-04-22 00:23 | 23.02761 | -155.61836 | 38022 ft | 485 kts | 198° |
| 2026-04-22 00:24 | 22.96222 | -155.63651 | 38043 ft | 484 kts | 198° |
| 2026-04-22 00:24 | 22.89685 | -155.65464 | 38041 ft | 484 kts | 198° |
| 2026-04-22 00:25 | 22.83186 | -155.67265 | 38043 ft | 484 kts | 198° |
| 2026-04-22 00:25 | 22.76680 | -155.69066 | 38042 ft | 484 kts | 198° |
| 2026-04-22 00:26 | 22.70150 | -155.70867 | 38040 ft | 484 kts | 198° |
| 2026-04-22 00:26 | 22.63609 | -155.72669 | 38041 ft | 484 kts | 198° |
| 2026-04-22 00:27 | 22.57066 | -155.74469 | 38037 ft | 484 kts | 198° |
| 2026-04-22 00:27 | 22.48342 | -155.76859 | 38037 ft | 484 kts | 198° |
| 2026-04-22 00:28 | 22.41793 | -155.78664 | 38035 ft | 484 kts | 198° |
| 2026-04-22 00:28 | 22.35302 | -155.80445 | 38002 ft | 484 kts | 198° |
| 2026-04-22 00:28 | 22.32036 | -155.81340 | 37219 ft | 484 kts | 198° |
| 2026-04-22 00:29 | 22.28750 | -155.82240 | 36295 ft | 489 kts | 198° |
| 2026-04-22 00:29 | 22.25433 | -155.83148 | 35526 ft | 490 kts | 198° |
| 2026-04-22 00:29 | 22.22123 | -155.84055 | 34797 ft | 491 kts | 198° |
| 2026-04-22 00:29 | 22.18844 | -155.84951 | 34013 ft | 493 kts | 198° |
| 2026-04-22 00:30 | 22.15509 | -155.85863 | 33044 ft | 497 kts | 198° |
| 2026-04-22 00:30 | 22.12136 | -155.86784 | 32138 ft | 499 kts | 198° |
| 2026-04-22 00:30 | 22.08759 | -155.87707 | 31285 ft | 500 kts | 198° |
| 2026-04-22 00:30 | 22.05381 | -155.88629 | 30394 ft | 501 kts | 198° |
| 2026-04-22 00:31 | 22.01994 | -155.89553 | 29308 ft | 505 kts | 197° |
| 2026-04-22 00:31 | 21.98621 | -155.90472 | 28353 ft | 505 kts | 197° |
| 2026-04-22 00:31 | 21.95214 | -155.91401 | 27145 ft | 507 kts | 197° |
| 2026-04-22 00:31 | 21.91774 | -155.92338 | 26027 ft | 505 kts | 197° |
| 2026-04-22 00:32 | 21.88381 | -155.93262 | 25073 ft | 498 kts | 197° |
| 2026-04-22 00:32 | 21.85045 | -155.94170 | 24173 ft | 489 kts | 197° |
| 2026-04-22 00:32 | 21.81759 | -155.95064 | 23241 ft | 482 kts | 197° |
| 2026-04-22 00:32 | 21.78574 | -155.95930 | 22255 ft | 473 kts | 197° |
| 2026-04-22 00:33 | 21.75403 | -155.96793 | 21172 ft | 463 kts | 197° |
| 2026-04-22 00:33 | 21.72295 | -155.97637 | 20131 ft | 456 kts | 197° |
| 2026-04-22 00:33 | 21.69240 | -155.98466 | 19141 ft | 448 kts | 197° |
| 2026-04-22 00:33 | 21.66270 | -155.99273 | 18199 ft | 440 kts | 197° |
| 2026-04-22 00:34 | 21.63310 | -156.00076 | 17165 ft | 433 kts | 197° |
| 2026-04-22 00:34 | 21.60413 | -156.00861 | 16192 ft | 425 kts | 197° |
| 2026-04-22 00:34 | 21.57603 | -156.01622 | 15267 ft | 418 kts | 197° |
| 2026-04-22 00:34 | 21.54811 | -156.02379 | 14375 ft | 411 kts | 196° |
| 2026-04-22 00:35 | 21.52056 | -156.03126 | 13461 ft | 404 kts | 196° |
| 2026-04-22 00:35 | 21.49345 | -156.03859 | 12578 ft | 399 kts | 196° |
| 2026-04-22 00:35 | 21.46668 | -156.04584 | 11854 ft | 392 kts | 196° |
| 2026-04-22 00:35 | 21.44051 | -156.05292 | 11344 ft | 381 kts | 196° |
| 2026-04-22 00:36 | 21.42350 | -156.05753 | 11220 ft | 381 kts | 196° |
| 2026-04-22 00:36 | 21.39770 | -156.06451 | 11071 ft | 382 kts | 195° |
| 2026-04-22 00:36 | 21.36401 | -156.07361 | 10868 ft | 367 kts | 195° |
| 2026-04-22 00:36 | 21.34742 | -156.07810 | 10751 ft | 360 kts | 195° |
| 2026-04-22 00:37 | 21.32368 | -156.08451 | 10579 ft | 349 kts | 195° |
| 2026-04-22 00:37 | 21.30038 | -156.09080 | 10403 ft | 339 kts | 195° |
| 2026-04-22 00:37 | 21.27783 | -156.09689 | 10245 ft | 329 kts | 195° |
| 2026-04-22 00:37 | 21.25612 | -156.10275 | 10091 ft | 320 kts | 195° |
| 2026-04-22 00:38 | 21.23479 | -156.10851 | 9890 ft | 313 kts | 195° |
| 2026-04-22 00:38 | 21.21370 | -156.11419 | 9533 ft | 308 kts | 195° |
| 2026-04-22 00:38 | 21.19311 | -156.11974 | 9174 ft | 302 kts | 195° |
| 2026-04-22 00:38 | 21.17336 | -156.12627 | 8908 ft | 290 kts | 208° |
| 2026-04-22 00:39 | 21.15692 | -156.13817 | 8686 ft | 281 kts | 216° |
| 2026-04-22 00:39 | 21.14131 | -156.15005 | 8491 ft | 275 kts | 216° |
| 2026-04-22 00:39 | 21.12587 | -156.16184 | 8297 ft | 272 kts | 216° |
| 2026-04-22 00:39 | 21.11040 | -156.17370 | 8109 ft | 272 kts | 216° |
| 2026-04-22 00:40 | 21.09496 | -156.18555 | 7912 ft | 272 kts | 216° |
| 2026-04-22 00:40 | 21.07963 | -156.19732 | 7727 ft | 270 kts | 216° |
| 2026-04-22 00:40 | 21.06472 | -156.20879 | 7521 ft | 264 kts | 216° |
| 2026-04-22 00:40 | 21.04990 | -156.22017 | 7333 ft | 258 kts | 216° |
| 2026-04-22 00:41 | 21.03543 | -156.23128 | 7193 ft | 250 kts | 216° |
| 2026-04-22 00:41 | 21.02168 | -156.24181 | 7128 ft | 241 kts | 216° |
| 2026-04-22 00:41 | 21.00818 | -156.25205 | 6987 ft | 234 kts | 216° |
| 2026-04-22 00:41 | 20.99486 | -156.26215 | 6793 ft | 236 kts | 216° |
| 2026-04-22 00:42 | 20.98120 | -156.27250 | 6563 ft | 244 kts | 216° |
| 2026-04-22 00:42 | 20.96726 | -156.28307 | 6290 ft | 247 kts | 216° |
| 2026-04-22 00:42 | 20.95338 | -156.29359 | 6026 ft | 246 kts | 216° |
| 2026-04-22 00:42 | 20.93943 | -156.30416 | 5732 ft | 244 kts | 216° |
| 2026-04-22 00:43 | 20.92572 | -156.31456 | 5426 ft | 243 kts | 216° |
| 2026-04-22 00:43 | 20.91207 | -156.32489 | 5170 ft | 234 kts | 216° |
| 2026-04-22 00:43 | 20.89931 | -156.33456 | 5047 ft | 220 kts | 216° |
| 2026-04-22 00:43 | 20.88727 | -156.34371 | 4924 ft | 206 kts | 216° |
| 2026-04-22 00:44 | 20.87579 | -156.35249 | 4677 ft | 200 kts | 216° |
| 2026-04-22 00:44 | 20.86459 | -156.36105 | 4415 ft | 194 kts | 216° |
| 2026-04-22 00:44 | 20.85369 | -156.36928 | 4178 ft | 189 kts | 215° |
| 2026-04-22 00:44 | 20.84304 | -156.37712 | 3954 ft | 184 kts | 215° |
| 2026-04-22 00:45 | 20.83253 | -156.38488 | 3723 ft | 183 kts | 215° |
| 2026-04-22 00:45 | 20.82219 | -156.39250 | 3506 ft | 183 kts | 215° |
| 2026-04-22 00:45 | 20.81168 | -156.40028 | 3318 ft | 183 kts | 216° |
| 2026-04-22 00:45 | 20.80204 | -156.40914 | 3080 ft | 182 kts | 229° |
| 2026-04-22 00:46 | 20.79494 | -156.42007 | 2816 ft | 181 kts | 246° |
| 2026-04-22 00:46 | 20.79153 | -156.43287 | 2579 ft | 179 kts | 266° |
| 2026-04-22 00:46 | 20.79195 | -156.44605 | 2357 ft | 176 kts | 283° |
| 2026-04-22 00:46 | 20.79609 | -156.45828 | 2143 ft | 175 kts | 300° |
| 2026-04-22 00:47 | 20.80341 | -156.46865 | 1923 ft | 174 kts | 318° |
| 2026-04-22 00:47 | 20.81333 | -156.47555 | 1691 ft | 172 kts | 340° |
| 2026-04-22 00:47 | 20.82442 | -156.47784 | 1525 ft | 152 kts | 1° |
| 2026-04-22 00:47 | 20.83454 | -156.47604 | 1347 ft | 145 kts | 18° |
| 2026-04-22 00:48 | 20.84350 | -156.47110 | 1202 ft | 146 kts | 34° |
| 2026-04-22 00:48 | 20.85154 | -156.46452 | 1027 ft | 147 kts | 34° |
| 2026-04-22 00:48 | 20.85975 | -156.45821 | 784 ft | 143 kts | 34° |
| 2026-04-22 00:48 | 20.86784 | -156.45221 | 540 ft | 140 kts | 34° |
| 2026-04-22 00:49 | 20.87580 | -156.44633 | 407 ft | 138 kts | 33° |
| 2026-04-22 00:49 | 20.88363 | -156.44054 | 222 ft | 135 kts | 35° |
| 2026-04-22 00:49 | 20.89129 | -156.43476 | 60 ft | 130 kts | 34° |
| 2026-04-22 00:49 | 20.89697 | -156.43052 | 46 ft | 83 kts | 34° |
| 2026-04-22 00:50 | 20.89995 | -156.42894 | 46 ft | 29 kts | 331° |
| 2026-04-22 00:50 | 20.89996 | -156.42982 | 46 ft | 14 kts | 231° |
| 2026-04-22 00:50 | 20.89914 | -156.43048 | 47 ft | 16 kts | 216° |
| 2026-04-22 00:50 | 20.89829 | -156.43112 | 47 ft | 15 kts | 214° |
| 2026-04-22 00:51 | 20.89739 | -156.43179 | 44 ft | 16 kts | 215° |
| 2026-04-22 00:51 | 20.89656 | -156.43241 | 48 ft | 12 kts | 214° |
| 2026-04-22 00:51 | 20.89582 | -156.43295 | 48 ft | 14 kts | 214° |
| 2026-04-22 00:51 | 20.89501 | -156.43356 | 47 ft | 15 kts | 215° |
| 2026-04-22 00:52 | 20.89441 | -156.43401 | 47 ft | 9 kts | 215° |
| 2026-04-22 00:52 | 20.89434 | -156.43449 | 47 ft | 6 kts | 307° |
| 2026-04-22 00:52 | 20.89466 | -156.43495 | 46 ft | 9 kts | 306° |
| 2026-04-22 00:52 | 20.89486 | -156.43524 | 47 ft | 3 kts | 305° |
| 2026-04-22 00:53 | 20.89490 | -156.43531 | 47 ft | 0 kts | 306° |